sensor_id;sensor_type;location;lat;lon;timestamp;P1;durP1;ratioP1;P2;durP2;ratioP2
26690;SDS011;14307;51.718;8.938;2023-08-31T00:01:06;46.05;;;27.10;;
26690;SDS011;14307;51.718;8.938;2023-08-31T00:03:35;52.70;;;28.67;;
26690;SDS011;14307;51.718;8.938;2023-08-31T00:06:02;54.00;;;26.98;;
26690;SDS011;14307;51.718;8.938;2023-08-31T00:08:30;58.35;;;27.10;;
26690;SDS011;14307;51.718;8.938;2023-08-31T00:10:57;43.83;;;24.58;;
26690;SDS011;14307;51.718;8.938;2023-08-31T00:13:25;45.50;;;25.17;;
26690;SDS011;14307;51.718;8.938;2023-08-31T00:15:54;51.47;;;26.55;;
26690;SDS011;14307;51.718;8.938;2023-08-31T00:18:25;55.90;;;26.67;;
26690;SDS011;14307;51.718;8.938;2023-08-31T00:20:52;47.03;;;26.45;;
26690;SDS011;14307;51.718;8.938;2023-08-31T00:23:19;51.42;;;26.58;;
26690;SDS011;14307;51.718;8.938;2023-08-31T00:25:46;48.55;;;26.10;;
26690;SDS011;14307;51.718;8.938;2023-08-31T00:28:18;46.08;;;25.70;;
26690;SDS011;14307;51.718;8.938;2023-08-31T00:30:45;49.33;;;28.42;;
26690;SDS011;14307;51.718;8.938;2023-08-31T00:33:13;48.65;;;26.55;;
26690;SDS011;14307;51.718;8.938;2023-08-31T00:35:41;56.47;;;26.88;;
26690;SDS011;14307;51.718;8.938;2023-08-31T00:38:10;46.47;;;27.42;;
26690;SDS011;14307;51.718;8.938;2023-08-31T00:40:41;52.78;;;27.73;;
26690;SDS011;14307;51.718;8.938;2023-08-31T00:43:11;57.78;;;28.65;;
26690;SDS011;14307;51.718;8.938;2023-08-31T00:45:39;47.88;;;25.65;;
26690;SDS011;14307;51.718;8.938;2023-08-31T00:48:07;47.95;;;24.88;;
26690;SDS011;14307;51.718;8.938;2023-08-31T00:50:34;50.88;;;26.20;;
26690;SDS011;14307;51.718;8.938;2023-08-31T00:53:01;48.58;;;26.58;;
26690;SDS011;14307;51.718;8.938;2023-08-31T00:55:31;47.58;;;26.23;;
26690;SDS011;14307;51.718;8.938;2023-08-31T00:57:59;44.60;;;25.30;;
26690;SDS011;14307;51.718;8.938;2023-08-31T01:01:17;48.80;;;25.55;;
26690;SDS011;14307;51.718;8.938;2023-08-31T01:03:27;52.33;;;26.42;;
26690;SDS011;14307;51.718;8.938;2023-08-31T01:06:14;51.65;;;26.02;;
26690;SDS011;14307;51.718;8.938;2023-08-31T01:08:50;50.30;;;25.92;;
26690;SDS011;14307;51.718;8.938;2023-08-31T01:11:29;58.55;;;28.73;;
26690;SDS011;14307;51.718;8.938;2023-08-31T01:14:01;51.72;;;27.20;;
26690;SDS011;14307;51.718;8.938;2023-08-31T01:16:34;59.72;;;28.38;;
26690;SDS011;14307;51.718;8.938;2023-08-31T01:19:04;55.55;;;29.80;;
26690;SDS011;14307;51.718;8.938;2023-08-31T01:21:38;56.75;;;30.30;;
26690;SDS011;14307;51.718;8.938;2023-08-31T01:24:08;54.80;;;29.30;;
26690;SDS011;14307;51.718;8.938;2023-08-31T01:26:36;50.00;;;27.60;;
26690;SDS011;14307;51.718;8.938;2023-08-31T01:29:03;54.63;;;28.55;;
26690;SDS011;14307;51.718;8.938;2023-08-31T01:31:30;58.92;;;28.50;;
26690;SDS011;14307;51.718;8.938;2023-08-31T01:33:56;63.28;;;29.80;;
26690;SDS011;14307;51.718;8.938;2023-08-31T01:36:25;60.90;;;28.60;;
26690;SDS011;14307;51.718;8.938;2023-08-31T01:38:58;58.50;;;28.77;;
26690;SDS011;14307;51.718;8.938;2023-08-31T01:41:30;56.60;;;29.13;;
26690;SDS011;14307;51.718;8.938;2023-08-31T01:44:01;57.40;;;29.33;;
26690;SDS011;14307;51.718;8.938;2023-08-31T01:46:29;57.03;;;30.10;;
26690;SDS011;14307;51.718;8.938;2023-08-31T01:48:58;56.28;;;29.58;;
26690;SDS011;14307;51.718;8.938;2023-08-31T01:51:25;54.35;;;28.80;;
26690;SDS011;14307;51.718;8.938;2023-08-31T01:53:53;58.70;;;27.85;;
26690;SDS011;14307;51.718;8.938;2023-08-31T01:56:20;55.10;;;29.25;;
26690;SDS011;14307;51.718;8.938;2023-08-31T01:58:47;54.33;;;30.77;;
26690;SDS011;14307;51.718;8.938;2023-08-31T02:01:14;61.70;;;32.83;;
26690;SDS011;14307;51.718;8.938;2023-08-31T02:03:41;62.60;;;30.85;;
26690;SDS011;14307;51.718;8.938;2023-08-31T02:06:08;62.28;;;30.67;;
26690;SDS011;14307;51.718;8.938;2023-08-31T02:08:35;64.72;;;31.92;;
26690;SDS011;14307;51.718;8.938;2023-08-31T02:11:01;64.85;;;32.80;;
26690;SDS011;14307;51.718;8.938;2023-08-31T02:13:29;64.60;;;31.67;;
26690;SDS011;14307;51.718;8.938;2023-08-31T02:15:56;63.65;;;30.23;;
26690;SDS011;14307;51.718;8.938;2023-08-31T02:18:25;61.13;;;30.75;;
26690;SDS011;14307;51.718;8.938;2023-08-31T02:20:53;64.13;;;29.80;;
26690;SDS011;14307;51.718;8.938;2023-08-31T02:23:20;64.35;;;30.92;;
26690;SDS011;14307;51.718;8.938;2023-08-31T02:25:47;68.00;;;32.17;;
26690;SDS011;14307;51.718;8.938;2023-08-31T02:28:14;65.65;;;33.70;;
26690;SDS011;14307;51.718;8.938;2023-08-31T02:30:43;69.20;;;32.60;;
26690;SDS011;14307;51.718;8.938;2023-08-31T02:33:10;61.13;;;29.02;;
26690;SDS011;14307;51.718;8.938;2023-08-31T02:35:38;60.60;;;30.48;;
26690;SDS011;14307;51.718;8.938;2023-08-31T02:38:04;60.72;;;29.77;;
26690;SDS011;14307;51.718;8.938;2023-08-31T02:40:31;60.13;;;29.10;;
26690;SDS011;14307;51.718;8.938;2023-08-31T02:42:58;57.67;;;30.98;;
26690;SDS011;14307;51.718;8.938;2023-08-31T02:45:24;54.20;;;29.15;;
26690;SDS011;14307;51.718;8.938;2023-08-31T02:47:51;54.97;;;27.90;;
26690;SDS011;14307;51.718;8.938;2023-08-31T02:50:18;57.35;;;28.23;;
26690;SDS011;14307;51.718;8.938;2023-08-31T02:52:45;54.38;;;25.38;;
26690;SDS011;14307;51.718;8.938;2023-08-31T02:55:12;47.58;;;24.73;;
26690;SDS011;14307;51.718;8.938;2023-08-31T02:57:38;54.55;;;27.05;;
26690;SDS011;14307;51.718;8.938;2023-08-31T03:00:05;51.25;;;27.73;;
26690;SDS011;14307;51.718;8.938;2023-08-31T03:02:37;55.55;;;27.02;;
26690;SDS011;14307;51.718;8.938;2023-08-31T03:05:04;55.65;;;29.70;;
26690;SDS011;14307;51.718;8.938;2023-08-31T03:07:31;53.58;;;26.90;;
26690;SDS011;14307;51.718;8.938;2023-08-31T03:09:57;55.78;;;30.17;;
26690;SDS011;14307;51.718;8.938;2023-08-31T03:12:24;55.30;;;28.67;;
26690;SDS011;14307;51.718;8.938;2023-08-31T03:14:52;50.38;;;27.70;;
26690;SDS011;14307;51.718;8.938;2023-08-31T03:17:19;44.90;;;26.70;;
26690;SDS011;14307;51.718;8.938;2023-08-31T03:19:46;52.75;;;26.58;;
26690;SDS011;14307;51.718;8.938;2023-08-31T03:22:13;38.15;;;23.80;;
26690;SDS011;14307;51.718;8.938;2023-08-31T03:24:40;35.88;;;20.88;;
26690;SDS011;14307;51.718;8.938;2023-08-31T03:27:07;30.40;;;17.75;;
26690;SDS011;14307;51.718;8.938;2023-08-31T03:29:34;21.52;;;15.20;;
26690;SDS011;14307;51.718;8.938;2023-08-31T03:32:01;21.80;;;15.15;;
26690;SDS011;14307;51.718;8.938;2023-08-31T03:34:29;21.25;;;14.70;;
26690;SDS011;14307;51.718;8.938;2023-08-31T03:36:57;25.55;;;14.00;;
26690;SDS011;14307;51.718;8.938;2023-08-31T03:39:25;20.50;;;15.23;;
26690;SDS011;14307;51.718;8.938;2023-08-31T03:41:52;33.58;;;17.20;;
26690;SDS011;14307;51.718;8.938;2023-08-31T03:44:20;25.02;;;15.52;;
26690;SDS011;14307;51.718;8.938;2023-08-31T03:46:49;26.45;;;17.00;;
26690;SDS011;14307;51.718;8.938;2023-08-31T03:49:15;32.90;;;17.38;;
26690;SDS011;14307;51.718;8.938;2023-08-31T03:51:42;35.15;;;19.90;;
26690;SDS011;14307;51.718;8.938;2023-08-31T03:54:10;32.83;;;18.40;;
26690;SDS011;14307;51.718;8.938;2023-08-31T03:56:39;30.17;;;20.50;;
26690;SDS011;14307;51.718;8.938;2023-08-31T03:59:05;39.65;;;20.60;;
26690;SDS011;14307;51.718;8.938;2023-08-31T04:01:32;32.65;;;19.05;;
26690;SDS011;14307;51.718;8.938;2023-08-31T04:04:00;37.10;;;21.13;;
26690;SDS011;14307;51.718;8.938;2023-08-31T04:06:29;41.72;;;21.67;;
26690;SDS011;14307;51.718;8.938;2023-08-31T04:08:56;36.60;;;19.98;;
26690;SDS011;14307;51.718;8.938;2023-08-31T04:11:24;38.35;;;19.17;;
26690;SDS011;14307;51.718;8.938;2023-08-31T04:13:51;50.75;;;22.10;;
26690;SDS011;14307;51.718;8.938;2023-08-31T04:16:17;38.58;;;21.38;;
26690;SDS011;14307;51.718;8.938;2023-08-31T04:18:44;43.25;;;20.75;;
26690;SDS011;14307;51.718;8.938;2023-08-31T04:21:17;40.83;;;21.65;;
26690;SDS011;14307;51.718;8.938;2023-08-31T04:23:44;42.03;;;22.17;;
26690;SDS011;14307;51.718;8.938;2023-08-31T04:26:12;33.42;;;20.00;;
26690;SDS011;14307;51.718;8.938;2023-08-31T04:28:40;42.20;;;21.08;;
26690;SDS011;14307;51.718;8.938;2023-08-31T04:31:07;39.40;;;21.88;;
26690;SDS011;14307;51.718;8.938;2023-08-31T04:33:34;46.08;;;21.42;;
26690;SDS011;14307;51.718;8.938;2023-08-31T04:36:02;38.53;;;22.05;;
26690;SDS011;14307;51.718;8.938;2023-08-31T04:38:31;32.72;;;19.75;;
26690;SDS011;14307;51.718;8.938;2023-08-31T04:40:58;38.20;;;20.00;;
26690;SDS011;14307;51.718;8.938;2023-08-31T04:43:26;41.33;;;22.00;;
26690;SDS011;14307;51.718;8.938;2023-08-31T04:45:53;35.38;;;20.17;;
26690;SDS011;14307;51.718;8.938;2023-08-31T04:48:21;34.42;;;20.10;;
26690;SDS011;14307;51.718;8.938;2023-08-31T04:50:48;29.85;;;20.27;;
26690;SDS011;14307;51.718;8.938;2023-08-31T04:53:15;33.95;;;19.95;;
26690;SDS011;14307;51.718;8.938;2023-08-31T04:55:41;38.13;;;21.20;;
26690;SDS011;14307;51.718;8.938;2023-08-31T04:58:08;37.10;;;20.55;;
26690;SDS011;14307;51.718;8.938;2023-08-31T05:00:35;37.55;;;21.48;;
26690;SDS011;14307;51.718;8.938;2023-08-31T05:03:02;37.60;;;23.00;;
26690;SDS011;14307;51.718;8.938;2023-08-31T05:05:29;33.55;;;20.83;;
26690;SDS011;14307;51.718;8.938;2023-08-31T05:07:58;29.88;;;19.75;;
26690;SDS011;14307;51.718;8.938;2023-08-31T05:10:25;37.85;;;21.45;;
26690;SDS011;14307;51.718;8.938;2023-08-31T05:12:52;38.00;;;21.50;;
26690;SDS011;14307;51.718;8.938;2023-08-31T05:15:19;31.50;;;22.02;;
26690;SDS011;14307;51.718;8.938;2023-08-31T05:17:45;34.60;;;21.20;;
26690;SDS011;14307;51.718;8.938;2023-08-31T05:20:14;40.22;;;22.60;;
26690;SDS011;14307;51.718;8.938;2023-08-31T05:22:40;38.67;;;22.88;;
26690;SDS011;14307;51.718;8.938;2023-08-31T05:25:07;37.00;;;23.27;;
26690;SDS011;14307;51.718;8.938;2023-08-31T05:27:34;35.22;;;23.20;;
26690;SDS011;14307;51.718;8.938;2023-08-31T05:30:01;37.72;;;24.45;;
26690;SDS011;14307;51.718;8.938;2023-08-31T05:32:28;37.65;;;23.75;;
26690;SDS011;14307;51.718;8.938;2023-08-31T05:34:55;37.65;;;23.45;;
26690;SDS011;14307;51.718;8.938;2023-08-31T05:37:22;40.00;;;24.15;;
26690;SDS011;14307;51.718;8.938;2023-08-31T05:39:49;36.72;;;24.42;;
26690;SDS011;14307;51.718;8.938;2023-08-31T05:42:16;38.60;;;25.88;;
26690;SDS011;14307;51.718;8.938;2023-08-31T05:44:44;32.63;;;22.65;;
26690;SDS011;14307;51.718;8.938;2023-08-31T05:47:10;33.25;;;25.13;;
26690;SDS011;14307;51.718;8.938;2023-08-31T05:49:37;41.63;;;24.92;;
26690;SDS011;14307;51.718;8.938;2023-08-31T05:52:05;36.65;;;24.70;;
26690;SDS011;14307;51.718;8.938;2023-08-31T05:54:32;34.03;;;24.90;;
26690;SDS011;14307;51.718;8.938;2023-08-31T05:56:59;33.10;;;24.20;;
26690;SDS011;14307;51.718;8.938;2023-08-31T05:59:25;33.83;;;24.25;;
26690;SDS011;14307;51.718;8.938;2023-08-31T06:01:52;34.20;;;23.80;;
26690;SDS011;14307;51.718;8.938;2023-08-31T06:04:21;32.15;;;22.30;;
26690;SDS011;14307;51.718;8.938;2023-08-31T06:06:48;34.25;;;23.85;;
26690;SDS011;14307;51.718;8.938;2023-08-31T06:09:18;36.15;;;24.85;;
26690;SDS011;14307;51.718;8.938;2023-08-31T06:11:44;32.05;;;22.92;;
26690;SDS011;14307;51.718;8.938;2023-08-31T06:14:11;44.60;;;25.83;;
26690;SDS011;14307;51.718;8.938;2023-08-31T06:16:38;33.58;;;23.85;;
26690;SDS011;14307;51.718;8.938;2023-08-31T06:19:05;35.92;;;23.67;;
26690;SDS011;14307;51.718;8.938;2023-08-31T06:21:32;33.55;;;22.92;;
26690;SDS011;14307;51.718;8.938;2023-08-31T06:23:58;31.15;;;22.90;;
26690;SDS011;14307;51.718;8.938;2023-08-31T06:26:25;31.38;;;21.70;;
26690;SDS011;14307;51.718;8.938;2023-08-31T06:28:52;30.50;;;21.08;;
26690;SDS011;14307;51.718;8.938;2023-08-31T06:31:19;29.27;;;21.70;;
26690;SDS011;14307;51.718;8.938;2023-08-31T06:33:46;30.58;;;21.55;;
26690;SDS011;14307;51.718;8.938;2023-08-31T06:36:12;32.33;;;23.65;;
26690;SDS011;14307;51.718;8.938;2023-08-31T06:38:39;26.95;;;20.48;;
26690;SDS011;14307;51.718;8.938;2023-08-31T06:41:06;21.02;;;18.73;;
26690;SDS011;14307;51.718;8.938;2023-08-31T06:43:33;39.08;;;21.10;;
26690;SDS011;14307;51.718;8.938;2023-08-31T06:45:59;27.08;;;20.45;;
26690;SDS011;14307;51.718;8.938;2023-08-31T06:48:46;24.45;;;19.05;;
26690;SDS011;14307;51.718;8.938;2023-08-31T06:51:15;25.35;;;18.50;;
26690;SDS011;14307;51.718;8.938;2023-08-31T06:53:43;29.45;;;18.45;;
26690;SDS011;14307;51.718;8.938;2023-08-31T06:56:10;24.30;;;17.38;;
26690;SDS011;14307;51.718;8.938;2023-08-31T06:58:37;21.60;;;18.65;;
26690;SDS011;14307;51.718;8.938;2023-08-31T07:01:06;22.52;;;19.23;;
26690;SDS011;14307;51.718;8.938;2023-08-31T07:03:33;20.58;;;17.98;;
26690;SDS011;14307;51.718;8.938;2023-08-31T07:06:00;20.40;;;15.80;;
26690;SDS011;14307;51.718;8.938;2023-08-31T07:08:27;22.23;;;17.75;;
26690;SDS011;14307;51.718;8.938;2023-08-31T07:10:54;19.48;;;16.48;;
26690;SDS011;14307;51.718;8.938;2023-08-31T07:13:20;24.70;;;18.63;;
26690;SDS011;14307;51.718;8.938;2023-08-31T07:15:47;26.25;;;18.88;;
26690;SDS011;14307;51.718;8.938;2023-08-31T07:18:16;27.77;;;18.10;;
26690;SDS011;14307;51.718;8.938;2023-08-31T07:20:45;24.73;;;17.38;;
26690;SDS011;14307;51.718;8.938;2023-08-31T07:23:12;24.08;;;17.38;;
26690;SDS011;14307;51.718;8.938;2023-08-31T07:25:39;28.17;;;18.13;;
26690;SDS011;14307;51.718;8.938;2023-08-31T07:28:06;25.38;;;16.88;;
26690;SDS011;14307;51.718;8.938;2023-08-31T07:30:33;27.75;;;18.85;;
26690;SDS011;14307;51.718;8.938;2023-08-31T07:33:00;29.95;;;18.63;;
26690;SDS011;14307;51.718;8.938;2023-08-31T07:35:42;24.52;;;18.45;;
26690;SDS011;14307;51.718;8.938;2023-08-31T07:38:09;22.73;;;16.00;;
26690;SDS011;14307;51.718;8.938;2023-08-31T07:40:36;22.63;;;17.10;;
26690;SDS011;14307;51.718;8.938;2023-08-31T07:43:02;19.55;;;15.40;;
26690;SDS011;14307;51.718;8.938;2023-08-31T07:45:29;19.42;;;15.63;;
26690;SDS011;14307;51.718;8.938;2023-08-31T07:47:57;20.77;;;16.23;;
26690;SDS011;14307;51.718;8.938;2023-08-31T07:50:24;15.57;;;13.98;;
26690;SDS011;14307;51.718;8.938;2023-08-31T07:52:51;15.07;;;13.48;;
26690;SDS011;14307;51.718;8.938;2023-08-31T07:55:17;16.17;;;14.25;;
26690;SDS011;14307;51.718;8.938;2023-08-31T07:57:44;15.73;;;14.13;;
26690;SDS011;14307;51.718;8.938;2023-08-31T08:00:11;16.15;;;14.38;;
26690;SDS011;14307;51.718;8.938;2023-08-31T08:02:40;17.27;;;15.88;;
26690;SDS011;14307;51.718;8.938;2023-08-31T08:05:07;17.48;;;16.00;;
26690;SDS011;14307;51.718;8.938;2023-08-31T08:07:34;17.88;;;16.25;;
26690;SDS011;14307;51.718;8.938;2023-08-31T08:10:01;17.10;;;15.85;;
26690;SDS011;14307;51.718;8.938;2023-08-31T08:12:36;18.00;;;16.52;;
26690;SDS011;14307;51.718;8.938;2023-08-31T08:15:07;17.90;;;16.10;;
26690;SDS011;14307;51.718;8.938;2023-08-31T08:17:35;16.90;;;15.48;;
26690;SDS011;14307;51.718;8.938;2023-08-31T08:20:02;16.48;;;15.20;;
26690;SDS011;14307;51.718;8.938;2023-08-31T08:22:29;17.00;;;15.65;;
26690;SDS011;14307;51.718;8.938;2023-08-31T08:24:56;16.90;;;15.77;;
26690;SDS011;14307;51.718;8.938;2023-08-31T08:27:23;18.63;;;17.13;;
26690;SDS011;14307;51.718;8.938;2023-08-31T08:29:50;19.45;;;17.70;;
26690;SDS011;14307;51.718;8.938;2023-08-31T08:32:16;19.02;;;17.80;;
26690;SDS011;14307;51.718;8.938;2023-08-31T08:34:43;19.08;;;17.65;;
26690;SDS011;14307;51.718;8.938;2023-08-31T08:37:10;19.40;;;17.92;;
26690;SDS011;14307;51.718;8.938;2023-08-31T08:39:36;19.55;;;17.85;;
26690;SDS011;14307;51.718;8.938;2023-08-31T08:42:04;19.45;;;17.90;;
26690;SDS011;14307;51.718;8.938;2023-08-31T08:44:32;17.08;;;15.63;;
26690;SDS011;14307;51.718;8.938;2023-08-31T08:47:00;14.10;;;13.10;;
26690;SDS011;14307;51.718;8.938;2023-08-31T08:49:27;13.50;;;12.15;;
26690;SDS011;14307;51.718;8.938;2023-08-31T08:51:56;14.13;;;12.48;;
26690;SDS011;14307;51.718;8.938;2023-08-31T08:54:24;15.48;;;13.32;;
26690;SDS011;14307;51.718;8.938;2023-08-31T08:56:51;13.38;;;12.02;;
26690;SDS011;14307;51.718;8.938;2023-08-31T08:59:18;13.75;;;12.55;;
26690;SDS011;14307;51.718;8.938;2023-08-31T09:01:45;14.70;;;13.25;;
26690;SDS011;14307;51.718;8.938;2023-08-31T09:04:12;14.30;;;12.90;;
26690;SDS011;14307;51.718;8.938;2023-08-31T09:06:39;14.77;;;13.48;;
26690;SDS011;14307;51.718;8.938;2023-08-31T09:09:09;15.75;;;14.45;;
26690;SDS011;14307;51.718;8.938;2023-08-31T09:11:36;17.73;;;15.95;;
26690;SDS011;14307;51.718;8.938;2023-08-31T09:14:16;21.17;;;19.60;;
26690;SDS011;14307;51.718;8.938;2023-08-31T09:16:46;21.58;;;19.98;;
26690;SDS011;14307;51.718;8.938;2023-08-31T09:19:21;19.83;;;18.42;;
26690;SDS011;14307;51.718;8.938;2023-08-31T09:21:55;21.50;;;19.90;;
26690;SDS011;14307;51.718;8.938;2023-08-31T09:24:23;22.48;;;20.92;;
26690;SDS011;14307;51.718;8.938;2023-08-31T09:26:55;20.92;;;19.60;;
26690;SDS011;14307;51.718;8.938;2023-08-31T09:29:23;21.48;;;19.75;;
26690;SDS011;14307;51.718;8.938;2023-08-31T09:31:50;20.83;;;19.25;;
26690;SDS011;14307;51.718;8.938;2023-08-31T09:34:18;22.15;;;20.48;;
26690;SDS011;14307;51.718;8.938;2023-08-31T09:36:45;20.60;;;19.10;;
26690;SDS011;14307;51.718;8.938;2023-08-31T09:39:13;21.65;;;19.60;;
26690;SDS011;14307;51.718;8.938;2023-08-31T09:41:56;20.55;;;19.13;;
26690;SDS011;14307;51.718;8.938;2023-08-31T09:44:23;19.15;;;17.50;;
26690;SDS011;14307;51.718;8.938;2023-08-31T09:46:49;20.70;;;19.10;;
26690;SDS011;14307;51.718;8.938;2023-08-31T09:49:17;15.68;;;14.50;;
26690;SDS011;14307;51.718;8.938;2023-08-31T09:51:48;11.73;;;10.90;;
26690;SDS011;14307;51.718;8.938;2023-08-31T09:54:16;11.15;;;10.25;;
26690;SDS011;14307;51.718;8.938;2023-08-31T09:56:48;10.82;;;9.77;;
26690;SDS011;14307;51.718;8.938;2023-08-31T09:59:15;11.95;;;10.73;;
26690;SDS011;14307;51.718;8.938;2023-08-31T10:01:43;12.35;;;10.45;;
26690;SDS011;14307;51.718;8.938;2023-08-31T10:04:11;12.27;;;9.27;;
26690;SDS011;14307;51.718;8.938;2023-08-31T10:06:39;11.93;;;10.10;;
26690;SDS011;14307;51.718;8.938;2023-08-31T10:09:07;11.50;;;8.07;;
26690;SDS011;14307;51.718;8.938;2023-08-31T10:11:38;13.25;;;10.35;;
26690;SDS011;14307;51.718;8.938;2023-08-31T10:14:06;13.13;;;10.38;;
26690;SDS011;14307;51.718;8.938;2023-08-31T10:16:35;12.23;;;11.10;;
26690;SDS011;14307;51.718;8.938;2023-08-31T10:19:06;13.88;;;11.90;;
26690;SDS011;14307;51.718;8.938;2023-08-31T10:21:33;15.25;;;13.85;;
26690;SDS011;14307;51.718;8.938;2023-08-31T10:24:00;15.27;;;13.93;;
26690;SDS011;14307;51.718;8.938;2023-08-31T10:26:28;16.98;;;15.68;;
26690;SDS011;14307;51.718;8.938;2023-08-31T10:28:57;16.83;;;15.32;;
26690;SDS011;14307;51.718;8.938;2023-08-31T10:31:28;16.85;;;15.20;;
26690;SDS011;14307;51.718;8.938;2023-08-31T10:34:01;16.75;;;15.38;;
26690;SDS011;14307;51.718;8.938;2023-08-31T10:36:44;17.02;;;15.60;;
26690;SDS011;14307;51.718;8.938;2023-08-31T10:39:18;17.35;;;16.05;;
26690;SDS011;14307;51.718;8.938;2023-08-31T10:41:52;19.23;;;17.92;;
26690;SDS011;14307;51.718;8.938;2023-08-31T10:44:21;20.42;;;19.02;;
26690;SDS011;14307;51.718;8.938;2023-08-31T10:46:53;22.20;;;20.55;;
26690;SDS011;14307;51.718;8.938;2023-08-31T10:49:21;22.88;;;21.10;;
26690;SDS011;14307;51.718;8.938;2023-08-31T10:51:49;22.77;;;20.95;;
26690;SDS011;14307;51.718;8.938;2023-08-31T10:57:04;21.83;;;20.30;;
26690;SDS011;14307;51.718;8.938;2023-08-31T11:02:10;24.40;;;23.00;;
26690;SDS011;14307;51.718;8.938;2023-08-31T11:07:44;23.45;;;21.60;;
26690;SDS011;14307;51.718;8.938;2023-08-31T11:10:17;23.17;;;21.73;;
26690;SDS011;14307;51.718;8.938;2023-08-31T11:12:49;24.88;;;23.13;;
26690;SDS011;14307;51.718;8.938;2023-08-31T11:15:21;25.45;;;24.02;;
26690;SDS011;14307;51.718;8.938;2023-08-31T11:17:58;24.88;;;23.27;;
26690;SDS011;14307;51.718;8.938;2023-08-31T11:20:25;24.25;;;22.40;;
26690;SDS011;14307;51.718;8.938;2023-08-31T11:22:55;24.98;;;23.35;;
26690;SDS011;14307;51.718;8.938;2023-08-31T11:25:22;26.38;;;24.70;;
26690;SDS011;14307;51.718;8.938;2023-08-31T11:30:21;26.85;;;24.88;;
26690;SDS011;14307;51.718;8.938;2023-08-31T11:32:51;26.70;;;24.83;;
26690;SDS011;14307;51.718;8.938;2023-08-31T11:35:19;23.67;;;21.98;;
26690;SDS011;14307;51.718;8.938;2023-08-31T11:37:55;25.48;;;23.67;;
26690;SDS011;14307;51.718;8.938;2023-08-31T11:40:25;26.88;;;24.88;;
26690;SDS011;14307;51.718;8.938;2023-08-31T11:42:55;26.30;;;24.38;;
26690;SDS011;14307;51.718;8.938;2023-08-31T11:45:23;23.67;;;21.77;;
26690;SDS011;14307;51.718;8.938;2023-08-31T11:47:51;23.30;;;21.65;;
26690;SDS011;14307;51.718;8.938;2023-08-31T11:50:19;24.27;;;22.67;;
26690;SDS011;14307;51.718;8.938;2023-08-31T11:52:47;19.42;;;18.13;;
26690;SDS011;14307;51.718;8.938;2023-08-31T11:55:15;20.25;;;18.75;;
26690;SDS011;14307;51.718;8.938;2023-08-31T11:57:48;17.67;;;16.65;;
26690;SDS011;14307;51.718;8.938;2023-08-31T12:00:21;14.60;;;13.60;;
26690;SDS011;14307;51.718;8.938;2023-08-31T12:05:26;11.48;;;10.77;;
26690;SDS011;14307;51.718;8.938;2023-08-31T12:07:53;11.55;;;10.95;;
26690;SDS011;14307;51.718;8.938;2023-08-31T12:10:21;11.98;;;11.25;;
26690;SDS011;14307;51.718;8.938;2023-08-31T12:12:49;13.98;;;13.07;;
26690;SDS011;14307;51.718;8.938;2023-08-31T12:15:19;16.25;;;15.20;;
26690;SDS011;14307;51.718;8.938;2023-08-31T12:17:47;17.45;;;16.45;;
26690;SDS011;14307;51.718;8.938;2023-08-31T12:20:24;18.10;;;16.80;;
26690;SDS011;14307;51.718;8.938;2023-08-31T12:22:52;17.48;;;16.48;;
26690;SDS011;14307;51.718;8.938;2023-08-31T12:25:21;19.50;;;18.23;;
26690;SDS011;14307;51.718;8.938;2023-08-31T12:27:48;19.08;;;17.90;;
26690;SDS011;14307;51.718;8.938;2023-08-31T12:30:16;20.25;;;18.90;;
26690;SDS011;14307;51.718;8.938;2023-08-31T12:32:43;21.02;;;19.65;;
26690;SDS011;14307;51.718;8.938;2023-08-31T12:35:09;22.02;;;20.73;;
26690;SDS011;14307;51.718;8.938;2023-08-31T12:37:37;22.10;;;20.70;;
26690;SDS011;14307;51.718;8.938;2023-08-31T12:40:05;21.92;;;20.63;;
26690;SDS011;14307;51.718;8.938;2023-08-31T12:42:33;23.25;;;21.65;;
26690;SDS011;14307;51.718;8.938;2023-08-31T12:44:59;23.70;;;22.17;;
26690;SDS011;14307;51.718;8.938;2023-08-31T12:47:26;23.08;;;21.73;;
26690;SDS011;14307;51.718;8.938;2023-08-31T12:49:53;24.20;;;22.60;;
26690;SDS011;14307;51.718;8.938;2023-08-31T12:52:20;24.65;;;23.17;;
26690;SDS011;14307;51.718;8.938;2023-08-31T12:54:46;24.80;;;23.13;;
26690;SDS011;14307;51.718;8.938;2023-08-31T12:57:14;25.48;;;23.95;;
26690;SDS011;14307;51.718;8.938;2023-08-31T12:59:41;24.38;;;22.98;;
26690;SDS011;14307;51.718;8.938;2023-08-31T13:02:08;24.45;;;22.70;;
26690;SDS011;14307;51.718;8.938;2023-08-31T13:04:38;22.92;;;21.63;;
26690;SDS011;14307;51.718;8.938;2023-08-31T13:07:06;25.08;;;23.17;;
26690;SDS011;14307;51.718;8.938;2023-08-31T13:09:33;25.08;;;23.48;;
26690;SDS011;14307;51.718;8.938;2023-08-31T13:12:00;23.88;;;22.27;;
26690;SDS011;14307;51.718;8.938;2023-08-31T13:14:26;26.08;;;23.98;;
26690;SDS011;14307;51.718;8.938;2023-08-31T13:16:53;24.42;;;22.77;;
26690;SDS011;14307;51.718;8.938;2023-08-31T13:19:22;25.48;;;23.77;;
26690;SDS011;14307;51.718;8.938;2023-08-31T13:21:48;25.52;;;23.73;;
26690;SDS011;14307;51.718;8.938;2023-08-31T13:24:15;26.42;;;24.83;;
26690;SDS011;14307;51.718;8.938;2023-08-31T13:26:43;26.27;;;24.33;;
26690;SDS011;14307;51.718;8.938;2023-08-31T13:29:13;23.95;;;22.45;;
26690;SDS011;14307;51.718;8.938;2023-08-31T13:31:40;24.05;;;22.45;;
26690;SDS011;14307;51.718;8.938;2023-08-31T13:34:07;25.33;;;23.30;;
26690;SDS011;14307;51.718;8.938;2023-08-31T13:36:34;25.38;;;23.80;;
26690;SDS011;14307;51.718;8.938;2023-08-31T13:39:01;24.17;;;22.48;;
26690;SDS011;14307;51.718;8.938;2023-08-31T13:41:29;24.33;;;22.73;;
26690;SDS011;14307;51.718;8.938;2023-08-31T13:43:56;25.83;;;23.73;;
26690;SDS011;14307;51.718;8.938;2023-08-31T13:46:23;25.25;;;23.65;;
26690;SDS011;14307;51.718;8.938;2023-08-31T13:48:49;24.85;;;23.30;;
26690;SDS011;14307;51.718;8.938;2023-08-31T13:51:16;23.83;;;22.15;;
26690;SDS011;14307;51.718;8.938;2023-08-31T13:53:43;25.95;;;24.25;;
26690;SDS011;14307;51.718;8.938;2023-08-31T13:56:09;24.33;;;22.50;;
26690;SDS011;14307;51.718;8.938;2023-08-31T13:58:36;23.92;;;22.42;;
26690;SDS011;14307;51.718;8.938;2023-08-31T14:01:03;24.48;;;22.88;;
26690;SDS011;14307;51.718;8.938;2023-08-31T14:03:30;26.55;;;24.48;;
26690;SDS011;14307;51.718;8.938;2023-08-31T14:05:57;24.80;;;23.02;;
26690;SDS011;14307;51.718;8.938;2023-08-31T14:08:24;25.27;;;23.48;;
26690;SDS011;14307;51.718;8.938;2023-08-31T14:10:52;25.48;;;23.40;;
26690;SDS011;14307;51.718;8.938;2023-08-31T14:13:19;24.75;;;23.05;;
26690;SDS011;14307;51.718;8.938;2023-08-31T14:15:46;25.25;;;23.15;;
26690;SDS011;14307;51.718;8.938;2023-08-31T14:18:13;26.02;;;24.13;;
26690;SDS011;14307;51.718;8.938;2023-08-31T14:20:41;26.65;;;24.60;;
26690;SDS011;14307;51.718;8.938;2023-08-31T14:23:08;24.98;;;23.13;;
26690;SDS011;14307;51.718;8.938;2023-08-31T14:25:35;25.65;;;23.73;;
26690;SDS011;14307;51.718;8.938;2023-08-31T14:28:04;25.45;;;23.42;;
26690;SDS011;14307;51.718;8.938;2023-08-31T14:30:31;25.48;;;23.58;;
26690;SDS011;14307;51.718;8.938;2023-08-31T14:32:58;27.58;;;25.02;;
26690;SDS011;14307;51.718;8.938;2023-08-31T14:35:25;26.02;;;24.13;;
26690;SDS011;14307;51.718;8.938;2023-08-31T14:37:53;25.23;;;23.52;;
26690;SDS011;14307;51.718;8.938;2023-08-31T14:40:20;24.05;;;22.17;;